sensor_id;sensor_type;location;lat;lon;timestamp;P1;durP1;ratioP1;P2;durP2;ratioP2
13897;SDS011;7019;50.766;4.474;2022-12-29T00:01:30;2.70;;;1.20;;
13897;SDS011;7019;50.766;4.474;2022-12-29T00:03:58;2.10;;;0.80;;
13897;SDS011;7019;50.766;4.474;2022-12-29T00:06:25;1.93;;;0.83;;
13897;SDS011;7019;50.766;4.474;2022-12-29T00:08:52;4.63;;;1.30;;
13897;SDS011;7019;50.766;4.474;2022-12-29T00:11:21;1.33;;;0.80;;
13897;SDS011;7019;50.766;4.474;2022-12-29T00:13:50;2.10;;;0.77;;
13897;SDS011;7019;50.766;4.474;2022-12-29T00:16:36;2.47;;;1.00;;
13897;SDS011;7019;50.766;4.474;2022-12-29T00:19:04;1.20;;;0.63;;
13897;SDS011;7019;50.766;4.474;2022-12-29T00:21:31;3.00;;;0.70;;
13897;SDS011;7019;50.766;4.474;2022-12-29T00:24:17;1.77;;;0.90;;
13897;SDS011;7019;50.766;4.474;2022-12-29T00:27:10;1.97;;;0.60;;
13897;SDS011;7019;50.766;4.474;2022-12-29T00:29:57;2.83;;;0.50;;
13897;SDS011;7019;50.766;4.474;2022-12-29T00:32:42;3.33;;;0.60;;
13897;SDS011;7019;50.766;4.474;2022-12-29T00:35:27;3.90;;;0.83;;
13897;SDS011;7019;50.766;4.474;2022-12-29T00:37:55;2.80;;;0.57;;
13897;SDS011;7019;50.766;4.474;2022-12-29T00:40:43;3.87;;;0.97;;
13897;SDS011;7019;50.766;4.474;2022-12-29T00:43:27;0.93;;;0.60;;
13897;SDS011;7019;50.766;4.474;2022-12-29T00:46:13;2.67;;;1.00;;
13897;SDS011;7019;50.766;4.474;2022-12-29T00:48:40;2.47;;;0.40;;
13897;SDS011;7019;50.766;4.474;2022-12-29T00:51:24;1.27;;;0.43;;
13897;SDS011;7019;50.766;4.474;2022-12-29T00:53:51;2.10;;;0.83;;
13897;SDS011;7019;50.766;4.474;2022-12-29T00:56:19;2.47;;;0.70;;
13897;SDS011;7019;50.766;4.474;2022-12-29T00:58:46;3.10;;;0.90;;
13897;SDS011;7019;50.766;4.474;2022-12-29T01:01:14;4.20;;;1.00;;
13897;SDS011;7019;50.766;4.474;2022-12-29T01:03:42;2.53;;;0.60;;
13897;SDS011;7019;50.766;4.474;2022-12-29T01:06:10;2.47;;;0.83;;
13897;SDS011;7019;50.766;4.474;2022-12-29T01:08:38;2.73;;;0.80;;
13897;SDS011;7019;50.766;4.474;2022-12-29T01:11:06;3.57;;;0.70;;
13897;SDS011;7019;50.766;4.474;2022-12-29T01:13:33;1.27;;;0.90;;
13897;SDS011;7019;50.766;4.474;2022-12-29T01:16:00;5.63;;;1.43;;
13897;SDS011;7019;50.766;4.474;2022-12-29T01:18:29;4.87;;;1.50;;
13897;SDS011;7019;50.766;4.474;2022-12-29T01:20:59;3.50;;;1.00;;
13897;SDS011;7019;50.766;4.474;2022-12-29T01:23:27;3.37;;;1.07;;
13897;SDS011;7019;50.766;4.474;2022-12-29T01:25:54;4.60;;;1.27;;
13897;SDS011;7019;50.766;4.474;2022-12-29T01:28:21;4.13;;;1.43;;
13897;SDS011;7019;50.766;4.474;2022-12-29T01:30:49;3.90;;;0.93;;
13897;SDS011;7019;50.766;4.474;2022-12-29T01:33:16;2.80;;;1.10;;
13897;SDS011;7019;50.766;4.474;2022-12-29T01:35:44;3.90;;;1.10;;
13897;SDS011;7019;50.766;4.474;2022-12-29T01:38:11;3.20;;;1.20;;
13897;SDS011;7019;50.766;4.474;2022-12-29T01:40:44;4.70;;;1.50;;
13897;SDS011;7019;50.766;4.474;2022-12-29T01:43:12;3.70;;;1.07;;
13897;SDS011;7019;50.766;4.474;2022-12-29T01:45:42;5.53;;;1.30;;
13897;SDS011;7019;50.766;4.474;2022-12-29T01:48:13;3.33;;;1.27;;
13897;SDS011;7019;50.766;4.474;2022-12-29T01:50:43;2.30;;;1.23;;
13897;SDS011;7019;50.766;4.474;2022-12-29T01:53:17;5.53;;;1.40;;
13897;SDS011;7019;50.766;4.474;2022-12-29T01:55:48;5.87;;;1.80;;
13897;SDS011;7019;50.766;4.474;2022-12-29T01:58:18;3.63;;;1.37;;
13897;SDS011;7019;50.766;4.474;2022-12-29T02:00:47;4.50;;;1.73;;
13897;SDS011;7019;50.766;4.474;2022-12-29T02:03:15;4.63;;;1.63;;
13897;SDS011;7019;50.766;4.474;2022-12-29T02:05:46;5.87;;;1.70;;
13897;SDS011;7019;50.766;4.474;2022-12-29T02:08:18;4.40;;;1.50;;
13897;SDS011;7019;50.766;4.474;2022-12-29T02:10:46;4.37;;;1.80;;
13897;SDS011;7019;50.766;4.474;2022-12-29T02:13:14;5.17;;;1.33;;
13897;SDS011;7019;50.766;4.474;2022-12-29T02:15:45;4.37;;;1.17;;
13897;SDS011;7019;50.766;4.474;2022-12-29T02:18:25;1.87;;;1.10;;
13897;SDS011;7019;50.766;4.474;2022-12-29T02:24:17;2.57;;;0.93;;
13897;SDS011;7019;50.766;4.474;2022-12-29T02:30:11;4.10;;;1.40;;
13897;SDS011;7019;50.766;4.474;2022-12-29T02:32:52;3.73;;;1.20;;
13897;SDS011;7019;50.766;4.474;2022-12-29T02:35:27;2.97;;;1.10;;
13897;SDS011;7019;50.766;4.474;2022-12-29T02:38:00;2.63;;;1.00;;
13897;SDS011;7019;50.766;4.474;2022-12-29T02:40:33;2.07;;;0.90;;
13897;SDS011;7019;50.766;4.474;2022-12-29T02:43:11;3.30;;;1.30;;
13897;SDS011;7019;50.766;4.474;2022-12-29T02:45:46;2.20;;;1.00;;
13897;SDS011;7019;50.766;4.474;2022-12-29T02:48:20;2.87;;;1.10;;
13897;SDS011;7019;50.766;4.474;2022-12-29T02:50:52;4.23;;;0.87;;
13897;SDS011;7019;50.766;4.474;2022-12-29T02:53:25;2.80;;;0.83;;
13897;SDS011;7019;50.766;4.474;2022-12-29T02:56:11;3.07;;;1.53;;
13897;SDS011;7019;50.766;4.474;2022-12-29T02:58:38;2.73;;;1.17;;
13897;SDS011;7019;50.766;4.474;2022-12-29T03:01:13;6.33;;;0.90;;
13897;SDS011;7019;50.766;4.474;2022-12-29T03:03:55;0.57;;;0.37;;
13897;SDS011;7019;50.766;4.474;2022-12-29T03:06:52;4.20;;;0.73;;
13897;SDS011;7019;50.766;4.474;2022-12-29T03:09:26;0.90;;;0.50;;
13897;SDS011;7019;50.766;4.474;2022-12-29T03:12:03;0.90;;;0.50;;
13897;SDS011;7019;50.766;4.474;2022-12-29T03:14:52;2.00;;;0.50;;
13897;SDS011;7019;50.766;4.474;2022-12-29T03:17:46;3.13;;;0.60;;
13897;SDS011;7019;50.766;4.474;2022-12-29T03:20:20;2.10;;;0.40;;
13897;SDS011;7019;50.766;4.474;2022-12-29T03:22:51;3.03;;;0.40;;
13897;SDS011;7019;50.766;4.474;2022-12-29T03:25:26;2.63;;;1.00;;
13897;SDS011;7019;50.766;4.474;2022-12-29T03:27:57;4.17;;;1.23;;
13897;SDS011;7019;50.766;4.474;2022-12-29T03:30:27;3.20;;;0.60;;
13897;SDS011;7019;50.766;4.474;2022-12-29T03:32:59;6.03;;;0.90;;
13897;SDS011;7019;50.766;4.474;2022-12-29T03:35:30;3.53;;;0.93;;
13897;SDS011;7019;50.766;4.474;2022-12-29T03:38:02;3.17;;;0.70;;
13897;SDS011;7019;50.766;4.474;2022-12-29T03:40:36;6.30;;;0.70;;
13897;SDS011;7019;50.766;4.474;2022-12-29T03:43:04;2.20;;;0.77;;
13897;SDS011;7019;50.766;4.474;2022-12-29T03:45:32;4.80;;;0.57;;
13897;SDS011;7019;50.766;4.474;2022-12-29T03:47:59;7.00;;;1.83;;
13897;SDS011;7019;50.766;4.474;2022-12-29T03:50:26;3.23;;;0.50;;
13897;SDS011;7019;50.766;4.474;2022-12-29T03:52:54;6.47;;;1.77;;
13897;SDS011;7019;50.766;4.474;2022-12-29T03:55:21;3.93;;;1.20;;
13897;SDS011;7019;50.766;4.474;2022-12-29T03:57:48;2.60;;;0.60;;
13897;SDS011;7019;50.766;4.474;2022-12-29T04:00:16;8.23;;;1.43;;
13897;SDS011;7019;50.766;4.474;2022-12-29T04:02:43;4.00;;;0.50;;
13897;SDS011;7019;50.766;4.474;2022-12-29T04:05:10;4.57;;;0.90;;
13897;SDS011;7019;50.766;4.474;2022-12-29T04:07:37;3.37;;;0.83;;
13897;SDS011;7019;50.766;4.474;2022-12-29T04:10:06;4.37;;;0.40;;
13897;SDS011;7019;50.766;4.474;2022-12-29T04:12:33;5.33;;;0.67;;
13897;SDS011;7019;50.766;4.474;2022-12-29T04:15:00;3.40;;;0.80;;
13897;SDS011;7019;50.766;4.474;2022-12-29T04:17:28;4.57;;;0.50;;
13897;SDS011;7019;50.766;4.474;2022-12-29T04:19:55;3.90;;;0.93;;
13897;SDS011;7019;50.766;4.474;2022-12-29T04:22:42;5.00;;;0.67;;
13897;SDS011;7019;50.766;4.474;2022-12-29T04:25:10;3.77;;;0.83;;
13897;SDS011;7019;50.766;4.474;2022-12-29T04:27:37;4.70;;;1.00;;
13897;SDS011;7019;50.766;4.474;2022-12-29T04:30:05;3.77;;;0.73;;
13897;SDS011;7019;50.766;4.474;2022-12-29T04:32:33;5.27;;;1.53;;
13897;SDS011;7019;50.766;4.474;2022-12-29T04:35:00;6.60;;;0.63;;
13897;SDS011;7019;50.766;4.474;2022-12-29T04:37:27;5.03;;;0.70;;
13897;SDS011;7019;50.766;4.474;2022-12-29T04:39:54;5.13;;;0.70;;
13897;SDS011;7019;50.766;4.474;2022-12-29T04:42:22;5.87;;;0.80;;
13897;SDS011;7019;50.766;4.474;2022-12-29T04:44:49;5.70;;;0.97;;
13897;SDS011;7019;50.766;4.474;2022-12-29T04:47:16;4.50;;;0.93;;
13897;SDS011;7019;50.766;4.474;2022-12-29T04:49:44;5.47;;;0.67;;
13897;SDS011;7019;50.766;4.474;2022-12-29T04:52:11;6.20;;;0.87;;
13897;SDS011;7019;50.766;4.474;2022-12-29T04:54:38;8.93;;;1.07;;
13897;SDS011;7019;50.766;4.474;2022-12-29T04:57:05;11.17;;;1.30;;
13897;SDS011;7019;50.766;4.474;2022-12-29T04:59:34;5.17;;;1.33;;
13897;SDS011;7019;50.766;4.474;2022-12-29T05:02:01;5.57;;;0.90;;
13897;SDS011;7019;50.766;4.474;2022-12-29T05:04:28;5.27;;;1.30;;
13897;SDS011;7019;50.766;4.474;2022-12-29T05:06:55;6.10;;;0.93;;
13897;SDS011;7019;50.766;4.474;2022-12-29T05:09:22;4.63;;;0.93;;
13897;SDS011;7019;50.766;4.474;2022-12-29T05:11:50;7.00;;;1.33;;
13897;SDS011;7019;50.766;4.474;2022-12-29T05:14:17;6.73;;;1.03;;
13897;SDS011;7019;50.766;4.474;2022-12-29T05:16:45;4.87;;;0.63;;
13897;SDS011;7019;50.766;4.474;2022-12-29T05:19:12;6.43;;;1.10;;
13897;SDS011;7019;50.766;4.474;2022-12-29T05:21:39;8.07;;;1.10;;
13897;SDS011;7019;50.766;4.474;2022-12-29T05:24:06;4.17;;;0.73;;
13897;SDS011;7019;50.766;4.474;2022-12-29T05:26:34;4.73;;;1.13;;
13897;SDS011;7019;50.766;4.474;2022-12-29T05:29:01;4.67;;;1.03;;
13897;SDS011;7019;50.766;4.474;2022-12-29T05:31:28;5.60;;;1.10;;
13897;SDS011;7019;50.766;4.474;2022-12-29T05:33:57;7.60;;;0.70;;
13897;SDS011;7019;50.766;4.474;2022-12-29T05:36:24;4.33;;;1.03;;
13897;SDS011;7019;50.766;4.474;2022-12-29T05:38:51;4.40;;;1.10;;
13897;SDS011;7019;50.766;4.474;2022-12-29T05:41:18;6.97;;;2.43;;
13897;SDS011;7019;50.766;4.474;2022-12-29T05:43:45;8.47;;;1.53;;
13897;SDS011;7019;50.766;4.474;2022-12-29T05:46:13;3.80;;;1.10;;
13897;SDS011;7019;50.766;4.474;2022-12-29T05:48:40;7.40;;;1.13;;
13897;SDS011;7019;50.766;4.474;2022-12-29T05:51:08;5.90;;;1.43;;
13897;SDS011;7019;50.766;4.474;2022-12-29T05:53:35;6.43;;;1.10;;
13897;SDS011;7019;50.766;4.474;2022-12-29T05:56:02;4.93;;;1.00;;
13897;SDS011;7019;50.766;4.474;2022-12-29T05:58:29;5.97;;;1.17;;
13897;SDS011;7019;50.766;4.474;2022-12-29T06:00:57;9.80;;;1.20;;
13897;SDS011;7019;50.766;4.474;2022-12-29T06:03:24;4.97;;;1.07;;
13897;SDS011;7019;50.766;4.474;2022-12-29T06:05:51;10.27;;;1.50;;
13897;SDS011;7019;50.766;4.474;2022-12-29T06:08:19;8.77;;;2.07;;
13897;SDS011;7019;50.766;4.474;2022-12-29T06:10:46;7.43;;;0.90;;
13897;SDS011;7019;50.766;4.474;2022-12-29T06:13:14;7.53;;;1.27;;
13897;SDS011;7019;50.766;4.474;2022-12-29T06:15:41;8.73;;;1.37;;
13897;SDS011;7019;50.766;4.474;2022-12-29T06:18:08;6.37;;;1.10;;
13897;SDS011;7019;50.766;4.474;2022-12-29T06:20:35;8.40;;;1.30;;
13897;SDS011;7019;50.766;4.474;2022-12-29T06:23:02;7.00;;;1.77;;
13897;SDS011;7019;50.766;4.474;2022-12-29T06:25:30;10.43;;;1.90;;
13897;SDS011;7019;50.766;4.474;2022-12-29T06:27:58;6.50;;;1.20;;
13897;SDS011;7019;50.766;4.474;2022-12-29T06:30:26;7.43;;;1.30;;
13897;SDS011;7019;50.766;4.474;2022-12-29T06:32:53;7.67;;;1.27;;
13897;SDS011;7019;50.766;4.474;2022-12-29T06:35:20;6.20;;;1.60;;
13897;SDS011;7019;50.766;4.474;2022-12-29T06:37:47;3.93;;;1.23;;
13897;SDS011;7019;50.766;4.474;2022-12-29T06:40:14;2.67;;;0.60;;
13897;SDS011;7019;50.766;4.474;2022-12-29T06:42:43;5.10;;;1.20;;
13897;SDS011;7019;50.766;4.474;2022-12-29T06:45:10;8.80;;;1.90;;
13897;SDS011;7019;50.766;4.474;2022-12-29T06:47:37;4.57;;;1.33;;
13897;SDS011;7019;50.766;4.474;2022-12-29T06:50:05;9.30;;;1.70;;
13897;SDS011;7019;50.766;4.474;2022-12-29T06:52:32;4.83;;;0.90;;
13897;SDS011;7019;50.766;4.474;2022-12-29T06:55:00;8.50;;;1.77;;
13897;SDS011;7019;50.766;4.474;2022-12-29T06:57:27;6.03;;;1.20;;
13897;SDS011;7019;50.766;4.474;2022-12-29T06:59:55;8.10;;;1.67;;
13897;SDS011;7019;50.766;4.474;2022-12-29T07:02:22;7.10;;;1.20;;
13897;SDS011;7019;50.766;4.474;2022-12-29T07:04:51;6.60;;;1.30;;
13897;SDS011;7019;50.766;4.474;2022-12-29T07:07:18;5.03;;;1.40;;
13897;SDS011;7019;50.766;4.474;2022-12-29T07:09:45;6.27;;;1.63;;
13897;SDS011;7019;50.766;4.474;2022-12-29T07:12:13;9.10;;;1.30;;
13897;SDS011;7019;50.766;4.474;2022-12-29T07:14:40;7.60;;;1.50;;
13897;SDS011;7019;50.766;4.474;2022-12-29T07:17:08;5.90;;;1.63;;
13897;SDS011;7019;50.766;4.474;2022-12-29T07:19:35;10.50;;;1.47;;
13897;SDS011;7019;50.766;4.474;2022-12-29T07:22:02;5.23;;;1.20;;
13897;SDS011;7019;50.766;4.474;2022-12-29T07:24:30;10.17;;;1.50;;
13897;SDS011;7019;50.766;4.474;2022-12-29T07:26:57;6.57;;;1.90;;
13897;SDS011;7019;50.766;4.474;2022-12-29T07:29:24;6.47;;;1.43;;
13897;SDS011;7019;50.766;4.474;2022-12-29T07:31:51;8.17;;;1.60;;
13897;SDS011;7019;50.766;4.474;2022-12-29T07:34:20;8.43;;;1.30;;
13897;SDS011;7019;50.766;4.474;2022-12-29T07:36:47;9.00;;;0.90;;
13897;SDS011;7019;50.766;4.474;2022-12-29T07:39:14;10.50;;;1.70;;
13897;SDS011;7019;50.766;4.474;2022-12-29T07:41:41;9.57;;;1.87;;
13897;SDS011;7019;50.766;4.474;2022-12-29T07:44:08;9.23;;;1.60;;
13897;SDS011;7019;50.766;4.474;2022-12-29T07:46:35;6.17;;;1.70;;
13897;SDS011;7019;50.766;4.474;2022-12-29T07:49:02;6.13;;;1.23;;
13897;SDS011;7019;50.766;4.474;2022-12-29T07:51:31;8.77;;;1.47;;
13897;SDS011;7019;50.766;4.474;2022-12-29T07:53:58;9.23;;;1.60;;
13897;SDS011;7019;50.766;4.474;2022-12-29T07:56:26;4.80;;;1.37;;
13897;SDS011;7019;50.766;4.474;2022-12-29T07:58:53;7.87;;;1.30;;
13897;SDS011;7019;50.766;4.474;2022-12-29T08:01:20;8.33;;;1.97;;
13897;SDS011;7019;50.766;4.474;2022-12-29T08:03:48;7.10;;;1.50;;
13897;SDS011;7019;50.766;4.474;2022-12-29T08:06:15;8.83;;;1.57;;
13897;SDS011;7019;50.766;4.474;2022-12-29T08:08:44;7.07;;;1.00;;
13897;SDS011;7019;50.766;4.474;2022-12-29T08:11:12;8.40;;;1.77;;
13897;SDS011;7019;50.766;4.474;2022-12-29T08:13:39;9.23;;;1.70;;
13897;SDS011;7019;50.766;4.474;2022-12-29T08:16:06;10.80;;;2.33;;
13897;SDS011;7019;50.766;4.474;2022-12-29T08:18:33;7.57;;;1.40;;
13897;SDS011;7019;50.766;4.474;2022-12-29T08:21:01;9.63;;;1.53;;
13897;SDS011;7019;50.766;4.474;2022-12-29T08:23:29;7.90;;;1.57;;
13897;SDS011;7019;50.766;4.474;2022-12-29T08:25:58;10.53;;;1.57;;
13897;SDS011;7019;50.766;4.474;2022-12-29T08:28:26;8.43;;;1.40;;
13897;SDS011;7019;50.766;4.474;2022-12-29T08:30:53;7.57;;;1.80;;
13897;SDS011;7019;50.766;4.474;2022-12-29T08:33:23;7.83;;;1.70;;
13897;SDS011;7019;50.766;4.474;2022-12-29T08:35:51;4.63;;;1.50;;
13897;SDS011;7019;50.766;4.474;2022-12-29T08:38:18;6.20;;;1.37;;
13897;SDS011;7019;50.766;4.474;2022-12-29T08:40:45;4.63;;;1.37;;
13897;SDS011;7019;50.766;4.474;2022-12-29T08:43:13;6.60;;;2.10;;
13897;SDS011;7019;50.766;4.474;2022-12-29T08:45:40;8.13;;;2.33;;
13897;SDS011;7019;50.766;4.474;2022-12-29T08:48:07;10.63;;;1.93;;
13897;SDS011;7019;50.766;4.474;2022-12-29T08:50:35;5.60;;;2.03;;
13897;SDS011;7019;50.766;4.474;2022-12-29T08:53:02;12.47;;;1.67;;
13897;SDS011;7019;50.766;4.474;2022-12-29T08:55:29;10.93;;;1.57;;
13897;SDS011;7019;50.766;4.474;2022-12-29T08:57:56;6.73;;;1.67;;
13897;SDS011;7019;50.766;4.474;2022-12-29T09:00:24;9.43;;;1.83;;
13897;SDS011;7019;50.766;4.474;2022-12-29T09:02:51;10.80;;;1.90;;
13897;SDS011;7019;50.766;4.474;2022-12-29T09:05:19;8.47;;;1.70;;
13897;SDS011;7019;50.766;4.474;2022-12-29T09:07:46;6.40;;;2.13;;
13897;SDS011;7019;50.766;4.474;2022-12-29T09:10:13;6.43;;;1.80;;
13897;SDS011;7019;50.766;4.474;2022-12-29T09:12:40;10.07;;;1.30;;
13897;SDS011;7019;50.766;4.474;2022-12-29T09:15:08;8.27;;;1.87;;
13897;SDS011;7019;50.766;4.474;2022-12-29T09:17:37;6.73;;;1.57;;
13897;SDS011;7019;50.766;4.474;2022-12-29T09:20:06;8.90;;;1.60;;
13897;SDS011;7019;50.766;4.474;2022-12-29T09:22:34;4.67;;;1.50;;
13897;SDS011;7019;50.766;4.474;2022-12-29T09:25:02;11.93;;;1.63;;
13897;SDS011;7019;50.766;4.474;2022-12-29T09:27:29;7.33;;;1.83;;
13897;SDS011;7019;50.766;4.474;2022-12-29T09:29:57;7.03;;;2.17;;
13897;SDS011;7019;50.766;4.474;2022-12-29T09:32:24;10.00;;;2.13;;
13897;SDS011;7019;50.766;4.474;2022-12-29T09:34:52;7.73;;;1.77;;
13897;SDS011;7019;50.766;4.474;2022-12-29T09:37:19;12.57;;;1.83;;
13897;SDS011;7019;50.766;4.474;2022-12-29T09:39:46;12.47;;;2.40;;
13897;SDS011;7019;50.766;4.474;2022-12-29T09:42:16;9.13;;;1.83;;
13897;SDS011;7019;50.766;4.474;2022-12-29T09:44:51;9.37;;;2.50;;
13897;SDS011;7019;50.766;4.474;2022-12-29T09:47:27;9.57;;;2.33;;
13897;SDS011;7019;50.766;4.474;2022-12-29T09:49:58;9.10;;;2.13;;
13897;SDS011;7019;50.766;4.474;2022-12-29T09:52:30;8.03;;;1.67;;
13897;SDS011;7019;50.766;4.474;2022-12-29T09:55:01;8.13;;;1.50;;
13897;SDS011;7019;50.766;4.474;2022-12-29T09:57:32;10.20;;;2.07;;
13897;SDS011;7019;50.766;4.474;2022-12-29T10:00:03;14.30;;;2.13;;
13897;SDS011;7019;50.766;4.474;2022-12-29T10:02:38;9.17;;;1.83;;
13897;SDS011;7019;50.766;4.474;2022-12-29T10:05:16;6.50;;;1.60;;
13897;SDS011;7019;50.766;4.474;2022-12-29T10:07:55;9.60;;;2.03;;
13897;SDS011;7019;50.766;4.474;2022-12-29T10:10:45;7.37;;;2.00;;
13897;SDS011;7019;50.766;4.474;2022-12-29T10:13:24;9.00;;;2.47;;
13897;SDS011;7019;50.766;4.474;2022-12-29T10:16:01;11.97;;;1.87;;
13897;SDS011;7019;50.766;4.474;2022-12-29T10:21:37;6.63;;;1.93;;
13897;SDS011;7019;50.766;4.474;2022-12-29T10:24:15;8.87;;;2.20;;
13897;SDS011;7019;50.766;4.474;2022-12-29T10:26:45;10.00;;;2.30;;
13897;SDS011;7019;50.766;4.474;2022-12-29T10:29:15;5.60;;;1.97;;
13897;SDS011;7019;50.766;4.474;2022-12-29T10:31:46;8.97;;;3.00;;
13897;SDS011;7019;50.766;4.474;2022-12-29T10:34:19;15.40;;;2.07;;
13897;SDS011;7019;50.766;4.474;2022-12-29T10:36:51;11.67;;;2.23;;
13897;SDS011;7019;50.766;4.474;2022-12-29T10:39:26;6.60;;;2.30;;
13897;SDS011;7019;50.766;4.474;2022-12-29T10:42:01;10.80;;;1.60;;
13897;SDS011;7019;50.766;4.474;2022-12-29T10:44:36;8.77;;;1.97;;
13897;SDS011;7019;50.766;4.474;2022-12-29T10:47:04;7.67;;;1.60;;
13897;SDS011;7019;50.766;4.474;2022-12-29T10:49:35;5.30;;;1.83;;
13897;SDS011;7019;50.766;4.474;2022-12-29T10:52:08;5.70;;;1.37;;
13897;SDS011;7019;50.766;4.474;2022-12-29T10:54:39;10.60;;;2.63;;
13897;SDS011;7019;50.766;4.474;2022-12-29T10:57:16;8.83;;;2.07;;
13897;SDS011;7019;50.766;4.474;2022-12-29T10:59:49;8.80;;;1.50;;
13897;SDS011;7019;50.766;4.474;2022-12-29T11:02:26;9.60;;;2.50;;
13897;SDS011;7019;50.766;4.474;2022-12-29T11:05:10;9.67;;;1.93;;
13897;SDS011;7019;50.766;4.474;2022-12-29T11:07:47;9.83;;;1.80;;
13897;SDS011;7019;50.766;4.474;2022-12-29T11:10:29;7.80;;;1.57;;
13897;SDS011;7019;50.766;4.474;2022-12-29T11:13:02;9.10;;;1.53;;
13897;SDS011;7019;50.766;4.474;2022-12-29T11:15:37;10.17;;;1.83;;
13897;SDS011;7019;50.766;4.474;2022-12-29T11:18:07;7.97;;;1.60;;
13897;SDS011;7019;50.766;4.474;2022-12-29T11:20:45;15.93;;;3.00;;
13897;SDS011;7019;50.766;4.474;2022-12-29T11:23:22;11.90;;;2.13;;
13897;SDS011;7019;50.766;4.474;2022-12-29T11:28:43;10.10;;;1.83;;
13897;SDS011;7019;50.766;4.474;2022-12-29T11:31:16;10.67;;;3.13;;
13897;SDS011;7019;50.766;4.474;2022-12-29T11:33:44;8.90;;;1.50;;
13897;SDS011;7019;50.766;4.474;2022-12-29T11:36:12;10.07;;;1.87;;
13897;SDS011;7019;50.766;4.474;2022-12-29T11:38:45;11.87;;;1.87;;
13897;SDS011;7019;50.766;4.474;2022-12-29T11:41:18;14.67;;;2.37;;
13897;SDS011;7019;50.766;4.474;2022-12-29T11:43:48;7.97;;;1.70;;
13897;SDS011;7019;50.766;4.474;2022-12-29T11:46:16;12.50;;;2.00;;
13897;SDS011;7019;50.766;4.474;2022-12-29T11:48:46;12.27;;;2.53;;
13897;SDS011;7019;50.766;4.474;2022-12-29T11:51:20;6.07;;;1.87;;
13897;SDS011;7019;50.766;4.474;2022-12-29T11:53:51;12.23;;;1.63;;
13897;SDS011;7019;50.766;4.474;2022-12-29T11:56:30;10.47;;;2.10;;
13897;SDS011;7019;50.766;4.474;2022-12-29T12:02:03;12.93;;;1.93;;
13897;SDS011;7019;50.766;4.474;2022-12-29T12:04:43;9.77;;;2.00;;
13897;SDS011;7019;50.766;4.474;2022-12-29T12:07:11;12.37;;;1.77;;
13897;SDS011;7019;50.766;4.474;2022-12-29T12:09:43;10.07;;;1.70;;
13897;SDS011;7019;50.766;4.474;2022-12-29T12:12:19;9.73;;;1.83;;
13897;SDS011;7019;50.766;4.474;2022-12-29T12:14:51;4.17;;;1.57;;
13897;SDS011;7019;50.766;4.474;2022-12-29T12:17:25;7.63;;;1.60;;
13897;SDS011;7019;50.766;4.474;2022-12-29T12:20:04;7.93;;;1.70;;
13897;SDS011;7019;50.766;4.474;2022-12-29T12:22:40;7.10;;;1.80;;
13897;SDS011;7019;50.766;4.474;2022-12-29T12:25:16;7.87;;;1.60;;
13897;SDS011;7019;50.766;4.474;2022-12-29T12:27:48;8.67;;;1.10;;
13897;SDS011;7019;50.766;4.474;2022-12-29T12:30:20;8.03;;;1.43;;
13897;SDS011;7019;50.766;4.474;2022-12-29T12:32:50;8.57;;;1.70;;
13897;SDS011;7019;50.766;4.474;2022-12-29T12:35:23;11.43;;;2.30;;
13897;SDS011;7019;50.766;4.474;2022-12-29T12:38:05;4.70;;;1.53;;
13897;SDS011;7019;50.766;4.474;2022-12-29T12:43:37;8.90;;;1.80;;
13897;SDS011;7019;50.766;4.474;2022-12-29T12:46:14;11.27;;;2.03;;
13897;SDS011;7019;50.766;4.474;2022-12-29T12:48:57;11.83;;;1.70;;
13897;SDS011;7019;50.766;4.474;2022-12-29T12:51:45;9.37;;;1.53;;
13897;SDS011;7019;50.766;4.474;2022-12-29T12:54:23;11.80;;;2.43;;
13897;SDS011;7019;50.766;4.474;2022-12-29T12:57:05;10.67;;;2.07;;
13897;SDS011;7019;50.766;4.474;2022-12-29T12:59:45;10.27;;;1.70;;
13897;SDS011;7019;50.766;4.474;2022-12-29T13:02:22;7.73;;;1.30;;
13897;SDS011;7019;50.766;4.474;2022-12-29T13:05:13;6.60;;;1.60;;
13897;SDS011;7019;50.766;4.474;2022-12-29T13:11:16;16.50;;;2.03;;
13897;SDS011;7019;50.766;4.474;2022-12-29T13:14:11;6.60;;;1.67;;
13897;SDS011;7019;50.766;4.474;2022-12-29T13:16:47;8.97;;;1.70;;
13897;SDS011;7019;50.766;4.474;2022-12-29T13:19:21;6.17;;;1.60;;
13897;SDS011;7019;50.766;4.474;2022-12-29T13:21:58;13.37;;;3.20;;
13897;SDS011;7019;50.766;4.474;2022-12-29T13:24:35;12.77;;;2.97;;
13897;SDS011;7019;50.766;4.474;2022-12-29T13:27:12;15.03;;;2.60;;
13897;SDS011;7019;50.766;4.474;2022-12-29T13:29:49;8.57;;;2.13;;
13897;SDS011;7019;50.766;4.474;2022-12-29T13:32:27;13.17;;;2.20;;
13897;SDS011;7019;50.766;4.474;2022-12-29T13:35:08;15.20;;;2.67;;
13897;SDS011;7019;50.766;4.474;2022-12-29T13:37:46;7.67;;;1.77;;
13897;SDS011;7019;50.766;4.474;2022-12-29T13:40:19;11.17;;;2.10;;
13897;SDS011;7019;50.766;4.474;2022-12-29T13:42:50;9.80;;;2.70;;
13897;SDS011;7019;50.766;4.474;2022-12-29T13:45:21;7.13;;;1.77;;
13897;SDS011;7019;50.766;4.474;2022-12-29T13:47:52;10.67;;;2.20;;
13897;SDS011;7019;50.766;4.474;2022-12-29T13:50:26;9.63;;;2.40;;
13897;SDS011;7019;50.766;4.474;2022-12-29T13:52:58;7.23;;;1.93;;
13897;SDS011;7019;50.766;4.474;2022-12-29T13:55:32;13.47;;;2.17;;
13897;SDS011;7019;50.766;4.474;2022-12-29T13:58:08;10.17;;;2.37;;
13897;SDS011;7019;50.766;4.474;2022-12-29T14:00:48;7.03;;;2.10;;
13897;SDS011;7019;50.766;4.474;2022-12-29T14:03:37;13.50;;;2.87;;
13897;SDS011;7019;50.766;4.474;2022-12-29T14:06:19;8.33;;;2.13;;
13897;SDS011;7019;50.766;4.474;2022-12-29T14:08:49;11.63;;;1.87;;
13897;SDS011;7019;50.766;4.474;2022-12-29T14:11:20;11.83;;;2.67;;
13897;SDS011;7019;50.766;4.474;2022-12-29T14:13:50;13.20;;;3.00;;
13897;SDS011;7019;50.766;4.474;2022-12-29T14:16:27;14.40;;;2.30;;
13897;SDS011;7019;50.766;4.474;2022-12-29T14:19:03;14.23;;;2.53;;
13897;SDS011;7019;50.766;4.474;2022-12-29T14:21:33;12.20;;;2.27;;
13897;SDS011;7019;50.766;4.474;2022-12-29T14:27:01;12.33;;;2.30;;
13897;SDS011;7019;50.766;4.474;2022-12-29T14:29:52;12.30;;;2.67;;
13897;SDS011;7019;50.766;4.474;2022-12-29T14:32:38;12.53;;;2.77;;
13897;SDS011;7019;50.766;4.474;2022-12-29T14:38:07;8.37;;;2.80;;
13897;SDS011;7019;50.766;4.474;2022-12-29T14:40:48;9.77;;;1.87;;
13897;SDS011;7019;50.766;4.474;2022-12-29T14:43:20;9.67;;;2.50;;
13897;SDS011;7019;50.766;4.474;2022-12-29T14:45:58;8.67;;;2.20;;
13897;SDS011;7019;50.766;4.474;2022-12-29T14:48:36;13.47;;;2.60;;
13897;SDS011;7019;50.766;4.474;2022-12-29T14:51:18;9.40;;;2.60;;
13897;SDS011;7019;50.766;4.474;2022-12-29T14:53:53;12.57;;;2.00;;
13897;SDS011;7019;50.766;4.474;2022-12-29T14:56:23;8.03;;;1.93;;
13897;SDS011;7019;50.766;4.474;2022-12-29T14:58:53;6.97;;;1.93;;
13897;SDS011;7019;50.766;4.474;2022-12-29T15:01:26;9.53;;;2.17;;
13897;SDS011;7019;50.766;4.474;2022-12-29T15:04:05;10.53;;;1.53;;
13897;SDS011;7019;50.766;4.474;2022-12-29T15:06:41;8.57;;;1.93;;
13897;SDS011;7019;50.766;4.474;2022-12-29T15:09:12;15.20;;;2.47;;
13897;SDS011;7019;50.766;4.474;2022-12-29T15:11:51;13.07;;;2.40;;
13897;SDS011;7019;50.766;4.474;2022-12-29T15:14:27;13.40;;;2.60;;
13897;SDS011;7019;50.766;4.474;2022-12-29T15:16:59;9.70;;;2.80;;
13897;SDS011;7019;50.766;4.474;2022-12-29T15:19:29;13.17;;;2.50;;
13897;SDS011;7019;50.766;4.474;2022-12-29T15:21:56;10.93;;;2.23;;
13897;SDS011;7019;50.766;4.474;2022-12-29T15:24:24;11.90;;;2.73;;
13897;SDS011;7019;50.766;4.474;2022-12-29T15:26:51;12.83;;;3.30;;
13897;SDS011;7019;50.766;4.474;2022-12-29T15:29:30;10.33;;;2.27;;
13897;SDS011;7019;50.766;4.474;2022-12-29T15:31:59;8.37;;;2.10;;
13897;SDS011;7019;50.766;4.474;2022-12-29T15:34:38;12.50;;;2.77;;
13897;SDS011;7019;50.766;4.474;2022-12-29T15:37:05;9.07;;;3.33;;
13897;SDS011;7019;50.766;4.474;2022-12-29T15:39:34;13.30;;;3.30;;
13897;SDS011;7019;50.766;4.474;2022-12-29T15:42:03;14.13;;;2.77;;
13897;SDS011;7019;50.766;4.474;2022-12-29T15:44:34;14.40;;;2.30;;
13897;SDS011;7019;50.766;4.474;2022-12-29T15:47:05;10.60;;;2.47;;
13897;SDS011;7019;50.766;4.474;2022-12-29T15:49:39;7.40;;;2.10;;
13897;SDS011;7019;50.766;4.474;2022-12-29T15:52:10;11.70;;;2.23;;